Time;durP1;ratioP1;P1;durP2;ratioP2;P2;SDS_P1;SDS_P2;PMS_P1;PMS_P2;Temp;Humidity;BMP_temperature;BMP_pressure;BME280_temperature;BME280_humidity;BME280_pressure;Samples;Min_cycle;Max_cycle;Signal;HPM_P1;HPM_P2
2023/06/24 00:01:22;;;;;;;8.68;6.43;;;19.50;91.60;;;;;;4822871;29;91238;-83
2023/06/24 00:03:48;;;;;;;8.55;6.22;;;19.50;91.60;;;;;;4807240;29;87956;-83
2023/06/24 00:06:18;;;;;;;7.13;6.10;;;19.50;91.40;;;;;;4822546;29;90362;-83
2023/06/24 00:08:44;;;;;;;7.65;6.15;;;19.50;91.50;;;;;;4822457;29;92538;-83
2023/06/24 00:11:11;;;;;;;13.27;6.38;;;19.40;91.60;;;;;;4822233;29;90852;-83
2023/06/24 00:13:37;;;;;;;10.32;6.97;;;19.40;91.40;;;;;;4807298;29;87519;-83
2023/06/24 00:16:03;;;;;;;8.18;6.40;;;19.40;91.40;;;;;;4823068;29;87476;-83
2023/06/24 00:18:29;;;;;;;9.25;6.80;;;19.30;91.50;;;;;;4808072;29;90835;-82
2023/06/24 00:20:56;;;;;;;8.75;6.00;;;19.30;91.50;;;;;;4809712;29;90729;-83
2023/06/24 00:23:25;;;;;;;8.35;6.22;;;19.20;91.50;;;;;;4825825;29;87588;-83
2023/06/24 00:25:52;;;;;;;10.95;6.80;;;19.20;91.60;;;;;;4825167;29;90057;-83
2023/06/24 00:28:18;;;;;;;13.07;7.47;;;19.20;91.70;;;;;;4809703;29;90911;-83
2023/06/24 00:30:43;;;;;;;8.07;6.35;;;19.20;91.90;;;;;;4827624;29;87686;-84
2023/06/24 00:33:10;;;;;;;13.65;7.03;;;19.10;92.00;;;;;;4826124;29;88730;-83
2023/06/24 00:35:37;;;;;;;8.57;6.70;;;19.00;91.90;;;;;;4825866;29;93442;-82
2023/06/24 00:38:02;;;;;;;13.27;6.90;;;19.00;91.80;;;;;;4827008;29;89612;-83
2023/06/24 00:40:28;;;;;;;12.98;6.50;;;19.00;92.40;;;;;;4825563;29;91590;-83
2023/06/24 00:42:55;;;;;;;9.07;7.03;;;18.90;92.10;;;;;;4810370;29;88009;-82
2023/06/24 00:45:23;;;;;;;8.88;7.55;;;18.90;92.10;;;;;;4825746;29;89312;-83
2023/06/24 00:47:49;;;;;;;8.50;6.78;;;18.90;92.40;;;;;;4826422;29;91073;-84
2023/06/24 00:50:15;;;;;;;12.45;7.72;;;18.80;92.40;;;;;;4825689;29;90648;-82
2023/06/24 00:52:42;;;;;;;10.13;7.22;;;18.80;92.40;;;;;;4811020;29;88284;-84
2023/06/24 00:55:12;;;;;;;10.45;7.95;;;18.80;92.50;;;;;;4825213;29;89240;-82
2023/06/24 00:57:39;;;;;;;10.55;7.38;;;18.70;92.70;;;;;;4808997;29;93198;-84
2023/06/24 01:00:13;;;;;;;8.95;7.13;;;18.70;92.60;;;;;;4810302;29;92152;-83
2023/06/24 01:02:38;;;;;;;9.80;7.70;;;18.60;92.50;;;;;;4810271;29;87608;-84
2023/06/24 01:05:08;;;;;;;10.40;8.02;;;18.60;92.60;;;;;;4825324;29;90445;-84
2023/06/24 01:07:36;;;;;;;11.40;7.95;;;18.60;92.80;;;;;;4809747;29;91001;-84
2023/06/24 01:10:07;;;;;;;13.48;9.07;;;18.60;92.80;;;;;;4809868;29;91946;-83
2023/06/24 01:12:41;;;;;;;9.40;7.45;;;18.50;92.80;;;;;;4809061;29;87561;-84
2023/06/24 01:15:08;;;;;;;10.95;7.93;;;18.50;92.50;;;;;;4810041;29;89274;-84
2023/06/24 01:18:10;;;;;;;13.25;8.23;;;18.40;92.90;;;;;;4826120;29;89850;-84
2023/06/24 01:20:41;;;;;;;13.57;8.38;;;18.40;92.90;;;;;;4820167;29;96351;-84
2023/06/24 01:23:38;;;;;;;12.80;8.18;;;18.40;92.90;;;;;;4808693;29;88822;-83
2023/06/24 01:26:22;;;;;;;12.43;9.23;;;18.30;92.90;;;;;;4824508;29;90829;-83
2023/06/24 01:29:22;;;;;;;15.02;9.07;;;18.30;93.00;;;;;;4824581;29;91461;-84
2023/06/24 01:32:15;;;;;;;15.60;8.73;;;18.20;93.30;;;;;;4824137;29;90684;-84
2023/06/24 01:34:50;;;;;;;9.83;7.17;;;18.20;93.00;;;;;;4809333;29;87928;-84
2023/06/24 01:37:21;;;;;;;11.15;7.95;;;18.10;92.70;;;;;;4808757;29;90337;-84
2023/06/24 01:40:10;;;;;;;13.45;9.40;;;18.10;93.10;;;;;;4808434;29;91911;-84
2023/06/24 01:42:39;;;;;;;12.52;8.73;;;18.10;93.00;;;;;;4809121;29;90205;-84
2023/06/24 01:45:07;;;;;;;10.05;8.40;;;18.00;93.10;;;;;;4810681;29;87757;-84
2023/06/24 01:47:34;;;;;;;13.93;10.05;;;18.00;93.00;;;;;;4809257;29;88961;-84
2023/06/24 01:50:02;;;;;;;11.13;8.30;;;17.90;93.40;;;;;;4822599;29;92640;-84
2023/06/24 01:52:30;;;;;;;11.40;8.35;;;17.90;93.30;;;;;;4823790;29;91948;-83
2023/06/24 01:54:58;;;;;;;12.25;8.85;;;17.80;93.30;;;;;;4809246;29;87902;-83
2023/06/24 01:57:25;;;;;;;13.85;10.00;;;17.80;93.40;;;;;;4809026;29;88933;-84
2023/06/24 01:59:54;;;;;;;13.05;8.65;;;17.70;93.60;;;;;;4809517;29;90223;-84
2023/06/24 02:02:21;;;;;;;14.38;9.68;;;17.70;93.50;;;;;;4809388;29;91147;-83
2023/06/24 02:04:49;;;;;;;11.85;8.57;;;17.60;93.70;;;;;;4809240;29;88193;-83
2023/06/24 02:07:17;;;;;;;11.32;9.02;;;17.60;93.60;;;;;;4823518;29;89164;-84
2023/06/24 02:09:44;;;;;;;13.95;9.27;;;17.50;93.80;;;;;;4808172;29;90332;-83
2023/06/24 02:12:11;;;;;;;14.02;8.98;;;17.50;94.00;;;;;;4808821;29;90264;-84
2023/06/24 02:14:38;;;;;;;13.50;8.90;;;17.50;93.80;;;;;;4823594;29;88713;-85
2023/06/24 02:17:05;;;;;;;10.80;8.45;;;17.50;93.90;;;;;;4808349;29;90235;-84
2023/06/24 02:19:32;;;;;;;10.05;8.25;;;17.40;93.90;;;;;;4808954;29;90512;-84
2023/06/24 02:21:59;;;;;;;14.15;8.48;;;17.40;93.70;;;;;;4809138;29;90757;-83
2023/06/24 02:24:26;;;;;;;13.77;8.90;;;17.40;93.90;;;;;;4823782;29;87982;-84
2023/06/24 02:26:53;;;;;;;11.68;9.15;;;17.30;93.80;;;;;;4808441;29;89264;-84
2023/06/24 02:29:21;;;;;;;14.65;10.52;;;17.30;94.00;;;;;;4807849;29;91531;-84
2023/06/24 02:31:47;;;;;;;13.32;9.88;;;17.30;94.40;;;;;;4807986;29;91144;-84
2023/06/24 02:34:13;;;;;;;20.48;13.15;;;17.20;94.40;;;;;;4824389;29;87375;-84
2023/06/24 02:36:39;;;;;;;19.23;12.35;;;17.20;94.80;;;;;;4823060;29;88241;-84
2023/06/24 02:39:05;;;;;;;18.20;12.57;;;17.20;95.40;;;;;;4824130;29;91923;-84
2023/06/24 02:41:30;;;;;;;23.73;14.82;;;17.20;95.70;;;;;;4822348;29;92040;-84
2023/06/24 02:43:56;;;;;;;19.48;12.40;;;17.10;96.10;;;;;;4821997;29;87619;-84
2023/06/24 02:46:22;;;;;;;18.48;13.05;;;17.10;96.10;;;;;;4823309;29;89137;-84
2023/06/24 02:48:49;;;;;;;15.68;10.50;;;17.10;96.50;;;;;;4822795;29;89687;-84
2023/06/24 02:51:16;;;;;;;17.77;11.90;;;17.10;96.00;;;;;;4806766;29;90018;-85
2023/06/24 02:53:42;;;;;;;23.83;12.65;;;17.00;95.70;;;;;;4807874;29;87598;-85
2023/06/24 02:56:09;;;;;;;21.90;13.35;;;17.10;96.00;;;;;;4807224;29;89219;-85
2023/06/24 02:58:38;;;;;;;17.42;12.63;;;17.00;96.00;;;;;;4822904;29;92431;-84
2023/06/24 03:01:06;;;;;;;26.25;13.40;;;17.00;96.30;;;;;;4808201;29;89998;-84
2023/06/24 03:03:33;;;;;;;19.98;13.82;;;17.00;96.30;;;;;;4822324;29;88562;-85
2023/06/24 03:05:59;;;;;;;16.70;12.20;;;17.00;96.50;;;;;;4823691;29;89468;-85
2023/06/24 03:08:26;;;;;;;19.83;12.27;;;16.90;96.20;;;;;;4807359;29;90367;-84
2023/06/24 03:10:56;;;;;;;22.77;13.88;;;16.90;96.30;;;;;;4821967;29;90012;-85
2023/06/24 03:13:22;;;;;;;22.33;12.77;;;16.90;96.20;;;;;;4807280;29;88224;-83
2023/06/24 03:15:47;;;;;;;21.65;13.07;;;16.90;96.30;;;;;;4822312;29;90532;-84
2023/06/24 03:18:13;;;;;;;28.15;14.23;;;16.90;96.70;;;;;;4822663;29;91428;-85
2023/06/24 03:20:38;;;;;;;16.98;13.10;;;16.80;96.60;;;;;;4808562;29;90443;-83
2023/06/24 03:23:08;;;;;;;21.08;12.68;;;16.80;96.70;;;;;;4808206;29;87386;-85
2023/06/24 03:25:35;;;;;;;25.98;13.95;;;16.80;96.60;;;;;;4807724;29;90388;-85
2023/06/24 03:28:03;;;;;;;18.88;12.23;;;16.80;96.60;;;;;;4806480;29;92423;-84
2023/06/24 03:30:29;;;;;;;21.83;14.05;;;16.70;96.50;;;;;;4823896;29;89490;-84
2023/06/24 03:32:55;;;;;;;16.15;11.73;;;16.70;96.60;;;;;;4808801;29;87606;-84
2023/06/24 03:35:22;;;;;;;20.42;12.02;;;16.70;96.50;;;;;;4822705;29;90667;-85
2023/06/24 03:37:48;;;;;;;19.73;12.77;;;16.70;96.40;;;;;;4807516;29;91234;-85
2023/06/24 03:40:14;;;;;;;16.48;11.05;;;16.70;96.40;;;;;;4807859;29;89913;-85
2023/06/24 03:42:39;;;;;;;18.17;12.15;;;16.70;96.20;;;;;;4822470;29;87596;-85
2023/06/24 03:45:05;;;;;;;19.00;12.40;;;16.70;96.20;;;;;;4823810;29;89323;-85
2023/06/24 03:47:31;;;;;;;21.33;12.35;;;16.70;96.30;;;;;;4822678;29;91261;-83
2023/06/24 03:49:57;;;;;;;16.40;10.70;;;16.70;96.20;;;;;;4824212;29;87545;-84
2023/06/24 03:52:22;;;;;;;17.58;11.05;;;16.60;96.00;;;;;;4806541;29;88882;-84
2023/06/24 03:54:48;;;;;;;16.77;11.85;;;16.60;95.80;;;;;;4822158;29;90602;-85
2023/06/24 03:57:13;;;;;;;17.92;10.98;;;16.60;95.80;;;;;;4821699;29;90296;-84
2023/06/24 03:59:39;;;;;;;16.95;10.25;;;16.60;95.70;;;;;;4807494;29;90067;-85
2023/06/24 04:02:08;;;;;;;19.17;11.73;;;16.60;95.50;;;;;;4824008;29;88682;-85
2023/06/24 04:04:35;;;;;;;15.50;10.07;;;16.50;95.30;;;;;;4822068;29;90043;-82
2023/06/24 04:07:01;;;;;;;19.92;12.20;;;16.60;95.30;;;;;;4822535;29;91352;-84
2023/06/24 04:09:26;;;;;;;15.23;11.52;;;16.50;95.30;;;;;;4822127;29;91246;-83
2023/06/24 04:11:52;;;;;;;15.95;11.02;;;16.50;95.40;;;;;;4823951;29;87665;-85
2023/06/24 04:14:18;;;;;;;15.75;11.10;;;16.50;95.30;;;;;;4821837;29;88777;-85
2023/06/24 04:16:43;;;;;;;17.83;10.95;;;16.50;95.50;;;;;;4822823;29;90165;-84
2023/06/24 04:19:09;;;;;;;15.90;10.88;;;16.50;95.50;;;;;;4805875;29;90887;-81
2023/06/24 04:21:34;;;;;;;19.40;11.90;;;16.40;95.70;;;;;;4822522;29;87564;-84
2023/06/24 04:24:00;;;;;;;14.48;9.00;;;16.50;95.70;;;;;;4823098;29;88110;-84
2023/06/24 04:26:26;;;;;;;14.98;10.25;;;16.50;95.60;;;;;;4805687;29;90069;-82
2023/06/24 04:28:51;;;;;;;16.83;10.18;;;16.50;95.60;;;;;;4821733;29;92073;-85
2023/06/24 04:31:17;;;;;;;13.82;8.75;;;16.50;95.60;;;;;;4806877;29;87842;-84
2023/06/24 04:33:42;;;;;;;14.20;9.00;;;16.50;95.60;;;;;;4822351;29;89330;-84
2023/06/24 04:36:09;;;;;;;13.60;8.75;;;16.50;95.50;;;;;;4823196;29;90992;-85
2023/06/24 04:38:34;;;;;;;12.73;9.32;;;16.50;95.40;;;;;;4821429;29;90164;-83
2023/06/24 04:41:00;;;;;;;14.02;9.43;;;16.50;95.40;;;;;;4821802;29;88649;-85
2023/06/24 04:43:28;;;;;;;19.55;10.43;;;16.50;95.50;;;;;;4821548;29;90819;-84
2023/06/24 04:45:55;;;;;;;18.50;10.18;;;16.60;95.70;;;;;;4822604;29;88628;-83
2023/06/24 04:48:22;;;;;;;14.23;9.52;;;16.60;95.80;;;;;;4805719;29;91408;-85
2023/06/24 04:50:48;;;;;;;19.90;9.35;;;16.60;95.70;;;;;;4806877;29;87676;-84
2023/06/24 04:53:14;;;;;;;14.30;8.98;;;16.60;95.70;;;;;;4822491;29;90582;-84
2023/06/24 04:55:39;;;;;;;17.88;9.27;;;16.60;95.80;;;;;;4821463;29;91484;-84
2023/06/24 04:58:05;;;;;;;19.08;8.65;;;16.70;95.80;;;;;;4822905;29;87192;-86
2023/06/24 05:00:31;;;;;;;15.80;8.43;;;16.70;95.60;;;;;;4822259;29;87575;-85
2023/06/24 05:02:56;;;;;;;18.63;9.10;;;16.70;95.60;;;;;;4822527;29;88891;-85
2023/06/24 05:05:22;;;;;;;14.70;8.25;;;16.80;95.50;;;;;;4825117;29;89396;-84
2023/06/24 05:07:48;;;;;;;19.63;8.75;;;16.80;95.60;;;;;;4825903;29;91769;-84
2023/06/24 05:10:14;;;;;;;19.30;7.38;;;16.80;95.50;;;;;;4825014;29;87573;-83
2023/06/24 05:12:39;;;;;;;14.82;8.05;;;16.90;95.00;;;;;;4824811;29;89474;-84
2023/06/24 05:15:06;;;;;;;13.63;7.38;;;16.90;94.90;;;;;;4826811;29;91075;-84
2023/06/24 05:17:31;;;;;;;19.67;8.00;;;16.90;94.70;;;;;;4827039;29;88347;-84
2023/06/24 05:19:57;;;;;;;16.25;8.23;;;17.00;94.80;;;;;;4826323;29;87520;-84
2023/06/24 05:22:23;;;;;;;13.30;8.15;;;17.00;94.90;;;;;;4826135;29;90113;-83
2023/06/24 05:24:48;;;;;;;16.88;8.25;;;17.00;94.60;;;;;;4824800;29;90344;-85
2023/06/24 05:27:14;;;;;;;11.95;7.60;;;17.10;94.50;;;;;;4826803;29;90157;-82
2023/06/24 05:29:40;;;;;;;12.50;7.78;;;17.20;94.50;;;;;;4825487;29;88568;-88
2023/06/24 05:32:06;;;;;;;15.60;7.45;;;17.20;94.40;;;;;;4824507;29;90435;-88
2023/06/24 05:34:31;;;;;;;11.50;7.28;;;17.30;94.20;;;;;;4825101;29;91520;-89
2023/06/24 05:36:57;;;;;;;18.30;7.32;;;17.40;94.00;;;;;;4825063;29;91182;-90
2023/06/24 05:39:24;;;;;;;14.07;7.13;;;17.40;93.70;;;;;;4825184;29;87701;-89
2023/06/24 05:41:50;;;;;;;9.38;6.43;;;17.50;93.40;;;;;;4810183;29;90186;-92
2023/06/24 05:44:17;;;;;;;15.02;6.72;;;17.60;93.10;;;;;;4824538;29;90389;-93
2023/06/24 05:46:46;;;;;;;11.93;6.32;;;17.60;92.50;;;;;;4825376;29;89989;-89
2023/06/24 05:49:12;;;;;;;16.77;6.60;;;17.70;92.60;;;;;;4826057;29;87744;-91
2023/06/24 05:51:37;;;;;;;12.07;6.65;;;17.80;92.60;;;;;;4825021;29;89286;-93
2023/06/24 05:54:03;;;;;;;13.50;6.78;;;17.90;92.30;;;;;;4825696;29;91464;-92
2023/06/24 05:56:29;;;;;;;11.98;7.20;;;18.00;92.30;;;;;;4825488;29;91994;-90
2023/06/24 05:58:55;;;;;;;11.55;6.28;;;18.10;91.90;;;;;;4824432;29;87634;-91
2023/06/24 06:01:21;;;;;;;13.77;5.55;;;18.20;91.50;;;;;;4824313;29;88972;-91
2023/06/24 06:03:47;;;;;;;13.40;6.30;;;18.30;90.80;;;;;;4825152;29;91344;-91
2023/06/24 06:06:12;;;;;;;13.20;6.32;;;18.40;90.60;;;;;;4824303;29;90241;-92
2023/06/24 06:08:38;;;;;;;11.20;5.78;;;18.40;90.50;;;;;;4825430;29;87635;-92
2023/06/24 06:11:04;;;;;;;18.95;5.45;;;18.60;89.70;;;;;;4825673;29;88399;-91
2023/06/24 06:13:30;;;;;;;9.18;5.25;;;18.60;88.90;;;;;;4824539;29;91344;-91
2023/06/24 06:15:56;;;;;;;8.07;4.88;;;18.70;85.80;;;;;;4809568;29;90254;-90
2023/06/24 06:18:22;;;;;;;7.13;4.50;;;18.80;85.70;;;;;;4808874;29;88715;-88
2023/06/24 06:20:48;;;;;;;8.65;4.90;;;18.90;84.90;;;;;;4828085;29;89014;-92
2023/06/24 06:23:16;;;;;;;7.60;4.60;;;19.00;85.40;;;;;;4824961;29;92164;-90
2023/06/24 06:25:41;;;;;;;8.23;4.45;;;19.10;85.00;;;;;;4809423;29;91335;-95
2023/06/24 06:28:07;;;;;;;8.52;5.15;;;19.20;83.10;;;;;;4810320;29;87699;-91
2023/06/24 06:30:33;;;;;;;10.15;4.10;;;19.30;83.80;;;;;;4824645;29;90550;-92
2023/06/24 06:32:58;;;;;;;11.07;4.85;;;19.40;82.90;;;;;;4825244;29;91180;-92
2023/06/24 06:35:24;;;;;;;8.00;3.88;;;19.50;81.00;;;;;;4810250;29;91238;-92
2023/06/24 06:37:54;;;;;;;6.97;4.32;;;19.60;82.40;;;;;;4825285;29;87741;-92
2023/06/24 06:40:20;;;;;;;9.80;4.40;;;19.70;79.00;;;;;;4825926;29;88999;-93
2023/06/24 06:42:46;;;;;;;8.30;4.47;;;19.80;80.50;;;;;;4808373;29;92617;-91
2023/06/24 06:45:12;;;;;;;5.60;3.80;;;19.90;80.80;;;;;;4824659;29;91010;-90
2023/06/24 06:47:38;;;;;;;8.65;4.05;;;20.00;79.30;;;;;;4825363;29;87498;-89
2023/06/24 06:50:04;;;;;;;7.30;3.75;;;20.20;79.70;;;;;;4823972;29;90032;-92
2023/06/24 06:52:29;;;;;;;8.38;4.45;;;20.30;77.10;;;;;;4823549;29;90511;-90
2023/06/24 06:54:56;;;;;;;7.32;3.83;;;20.40;77.90;;;;;;4824080;29;91331;-92
2023/06/24 06:57:22;;;;;;;4.53;3.28;;;20.60;77.20;;;;;;4809469;29;87583;-94
2023/06/24 06:59:49;;;;;;;7.20;3.50;;;20.70;77.30;;;;;;4824571;29;90374;-92
2023/06/24 07:02:15;;;;;;;8.30;3.53;;;20.80;76.50;;;;;;4823252;29;92270;-90
2023/06/24 07:04:41;;;;;;;8.68;3.50;;;20.90;73.60;;;;;;4824566;29;89907;-91
2023/06/24 07:07:06;;;;;;;6.25;3.38;;;21.00;74.20;;;;;;4823661;29;88528;-92
2023/06/24 07:09:32;;;;;;;6.43;3.13;;;21.20;72.00;;;;;;4824089;29;89039;-90
2023/06/24 07:11:57;;;;;;;5.78;3.10;;;21.20;70.10;;;;;;4824002;29;91321;-92
2023/06/24 07:14:23;;;;;;;9.23;3.38;;;21.30;71.90;;;;;;4824169;29;89768;-88
2023/06/24 07:16:49;;;;;;;3.45;2.70;;;21.40;71.20;;;;;;4825866;29;87675;-90
2023/06/24 07:19:14;;;;;;;6.28;2.40;;;21.60;70.70;;;;;;4823856;29;90132;-89
2023/06/24 07:21:40;;;;;;;6.40;2.40;;;21.60;70.90;;;;;;4824952;29;90738;-92
2023/06/24 07:24:06;;;;;;;4.20;2.70;;;21.80;69.70;;;;;;4823289;29;91215;-92
2023/06/24 07:26:31;;;;;;;4.35;2.70;;;21.90;69.40;;;;;;4808570;29;88040;-92
2023/06/24 07:29:00;;;;;;;3.50;2.00;;;22.00;69.30;;;;;;4822345;29;90545;-90
2023/06/24 07:31:26;;;;;;;6.53;2.72;;;22.10;66.90;;;;;;4808847;29;91862;-91
2023/06/24 07:33:51;;;;;;;5.18;2.65;;;22.20;66.60;;;;;;4824256;29;91238;-90
2023/06/24 07:36:17;;;;;;;4.28;2.40;;;22.30;66.10;;;;;;4808585;29;87490;-89
2023/06/24 07:38:43;;;;;;;7.45;2.53;;;22.40;66.70;;;;;;4808990;29;88944;-92
2023/06/24 07:41:09;;;;;;;4.78;2.55;;;22.60;66.10;;;;;;4826926;29;91309;-90
2023/06/24 07:43:34;;;;;;;6.40;2.80;;;22.70;66.10;;;;;;4823174;29;91091;-91
2023/06/24 07:46:00;;;;;;;4.22;2.65;;;22.80;64.60;;;;;;4823486;29;87111;-92
2023/06/24 07:48:26;;;;;;;4.80;2.25;;;22.90;64.30;;;;;;4823253;29;89325;-90
2023/06/24 07:50:51;;;;;;;6.28;2.20;;;22.90;63.20;;;;;;4823916;29;90211;-87
2023/06/24 07:53:17;;;;;;;8.35;2.88;;;22.90;62.00;;;;;;4822800;29;91694;-91
2023/06/24 07:55:43;;;;;;;7.07;2.83;;;23.00;63.20;;;;;;4822800;29;88578;-88
2023/06/24 07:58:08;;;;;;;3.70;2.28;;;23.00;63.60;;;;;;4821196;29;88996;-86
2023/06/24 08:00:34;;;;;;;10.00;2.90;;;23.10;62.20;;;;;;4820334;29;91435;-84
2023/06/24 08:02:59;;;;;;;6.50;2.50;;;23.30;63.70;;;;;;4821136;29;91567;-93
2023/06/24 08:05:25;;;;;;;21.40;4.95;;;23.40;62.30;;;;;;4822156;29;87186;-91
2023/06/24 08:07:51;;;;;;;3.90;2.00;;;23.60;63.40;;;;;;4803707;29;94421;-93
2023/06/24 08:10:17;;;;;;;4.60;2.38;;;23.80;59.40;;;;;;4805158;29;91439;-92
2023/06/24 08:12:43;;;;;;;4.80;2.05;;;23.90;57.30;;;;;;4807482;29;90023;-86
2023/06/24 08:15:09;;;;;;;5.28;2.47;;;23.90;57.90;;;;;;4823062;29;87766;-91
2023/06/24 08:17:35;;;;;;;3.25;2.05;;;24.00;55.40;;;;;;4807062;29;90375;-91
2023/06/24 08:20:04;;;;;;;8.52;2.20;;;24.00;54.80;;;;;;4821752;29;92480;-92
2023/06/24 08:22:30;;;;;;;5.85;2.20;;;24.00;57.20;;;;;;4822174;29;93235;-91
2023/06/24 08:24:56;;;;;;;3.42;2.10;;;24.20;56.40;;;;;;4825696;29;87503;-89
2023/06/24 08:27:22;;;;;;;3.53;1.83;;;24.20;54.70;;;;;;4822752;29;90492;-91
2023/06/24 08:29:47;;;;;;;6.72;2.33;;;24.30;55.50;;;;;;4821851;29;90652;-85
2023/06/24 08:32:13;;;;;;;6.28;2.53;;;24.40;53.80;;;;;;4823172;29;91384;-88
2023/06/24 08:34:39;;;;;;;3.95;2.42;;;24.50;55.80;;;;;;4825074;29;87626;-92
2023/06/24 08:37:04;;;;;;;3.22;2.22;;;24.60;55.70;;;;;;4822321;29;90307;-88
2023/06/24 08:39:30;;;;;;;2.78;1.88;;;24.80;56.00;;;;;;4822330;29;90569;-90
2023/06/24 08:41:56;;;;;;;3.13;2.40;;;24.90;57.50;;;;;;4826129;29;90375;-90
2023/06/24 08:44:21;;;;;;;5.70;2.55;;;25.20;55.10;;;;;;4825128;29;88238;-91
2023/06/24 08:46:47;;;;;;;8.15;2.67;;;25.40;56.60;;;;;;4825425;29;89940;-91
2023/06/24 08:49:22;;;;;;;4.53;2.50;;;25.50;53.20;;;;;;4825601;29;90438;-89
2023/06/24 08:51:54;;;;;;;3.22;2.10;;;25.60;52.60;;;;;;4824796;29;91022;-93
2023/06/24 08:54:21;;;;;;;6.10;2.08;;;25.70;52.70;;;;;;4810876;29;87597;-92
2023/06/24 08:56:47;;;;;;;8.38;2.20;;;25.80;53.80;;;;;;4826113;29;89152;-92
2023/06/24 08:59:12;;;;;;;5.63;2.60;;;26.00;49.90;;;;;;4825250;29;91424;-92
2023/06/24 09:01:38;;;;;;;5.55;2.50;;;26.10;52.10;;;;;;4825358;29;90308;-91
2023/06/24 09:04:04;;;;;;;7.07;2.08;;;26.10;50.10;;;;;;4824949;29;87542;-90
2023/06/24 09:06:31;;;;;;;3.50;2.05;;;26.10;49.50;;;;;;4809754;29;89169;-92
2023/06/24 09:08:57;;;;;;;3.42;2.28;;;26.30;49.70;;;;;;4826568;29;92237;-89
2023/06/24 09:11:28;;;;;;;4.55;2.38;;;26.40;50.90;;;;;;4810299;29;91836;-90
2023/06/24 09:14:00;;;;;;;2.22;1.77;;;26.60;51.20;;;;;;4825404;29;87515;-89
2023/06/24 09:16:27;;;;;;;4.20;1.83;;;26.80;51.40;;;;;;4824796;29;89313;-89
2023/06/24 09:18:53;;;;;;;2.20;1.92;;;27.00;47.70;;;;;;4824767;29;89834;-91
2023/06/24 09:21:30;;;;;;;4.97;2.35;;;27.10;48.00;;;;;;4810444;29;91857;-89
2023/06/24 09:23:57;;;;;;;3.05;1.90;;;27.30;48.30;;;;;;4825559;29;88251;-92
2023/06/24 09:26:27;;;;;;;4.50;2.10;;;27.40;49.60;;;;;;4809790;29;90345;-91
2023/06/24 09:28:54;;;;;;;4.60;2.28;;;27.60;48.30;;;;;;4825427;29;89625;-92
2023/06/24 09:31:19;;;;;;;2.97;1.98;;;27.60;48.80;;;;;;4809280;29;90146;-92
2023/06/24 09:33:47;;;;;;;5.05;2.17;;;27.60;47.10;;;;;;4824333;29;88715;-89
2023/06/24 09:36:14;;;;;;;5.53;2.65;;;27.60;46.60;;;;;;4809783;29;90374;-93
2023/06/24 09:38:42;;;;;;;3.38;2.30;;;27.50;47.70;;;;;;4810613;29;91145;-93
2023/06/24 09:41:08;;;;;;;3.53;2.13;;;27.50;46.30;;;;;;4825139;29;90276;-93
2023/06/24 09:43:36;;;;;;;3.83;2.45;;;27.50;46.40;;;;;;4824616;29;87647;-93
2023/06/24 09:46:02;;;;;;;5.75;2.55;;;27.60;47.50;;;;;;4809419;29;89212;-91
2023/06/24 09:48:28;;;;;;;6.20;2.53;;;27.80;45.10;;;;;;4823832;29;91265;-92
2023/06/24 09:50:58;;;;;;;2.40;2.03;;;27.90;43.80;;;;;;4824403;29;91497;-92
2023/06/24 09:53:25;;;;;;;5.35;1.90;;;28.00;45.00;;;;;;4809635;29;87819;-87
2023/06/24 09:55:52;;;;;;;3.80;2.25;;;28.30;45.60;;;;;;4823966;29;89259;-89
2023/06/24 09:58:18;;;;;;;4.97;2.30;;;28.50;46.10;;;;;;4823584;29;92361;-91
2023/06/24 10:00:44;;;;;;;2.90;2.03;;;28.60;43.20;;;;;;4823282;29;92200;-87
2023/06/24 10:03:11;;;;;;;8.10;2.50;;;28.70;43.40;;;;;;4824825;29;87831;-94
2023/06/24 10:05:37;;;;;;;3.97;2.30;;;28.70;43.70;;;;;;4809116;29;93599;-89
2023/06/24 10:08:05;;;;;;;4.20;2.50;;;28.70;42.90;;;;;;4824471;29;90105;-92
2023/06/24 10:10:31;;;;;;;7.13;2.50;;;28.80;43.70;;;;;;4808455;29;90151;-90
2023/06/24 10:12:57;;;;;;;4.07;2.53;;;28.80;45.00;;;;;;4824465;29;87353;-92
2023/06/24 10:15:23;;;;;;;6.32;2.17;;;28.80;45.30;;;;;;4808627;29;89223;-88
2023/06/24 10:17:50;;;;;;;5.28;2.47;;;28.90;44.20;;;;;;4824203;29;91000;-90
2023/06/24 10:20:25;;;;;;;5.68;2.17;;;29.00;45.50;;;;;;4823495;29;95611;-91
2023/06/24 10:22:51;;;;;;;2.70;2.10;;;29.00;41.30;;;;;;4809109;29;88245;-90
2023/06/24 10:25:18;;;;;;;3.08;2.15;;;28.90;42.50;;;;;;4808412;29;90695;-92
2023/06/24 10:27:44;;;;;;;3.30;2.13;;;28.90;42.00;;;;;;4808478;29;92525;-92
2023/06/24 10:30:20;;;;;;;2.85;1.98;;;29.00;41.50;;;;;;4825533;29;90855;-94
2023/06/24 10:32:52;;;;;;;3.47;2.30;;;29.10;45.30;;;;;;4825211;29;88988;-94
2023/06/24 10:35:27;;;;;;;4.93;2.30;;;29.20;41.40;;;;;;4808692;29;90885;-94
2023/06/24 10:37:57;;;;;;;3.85;1.90;;;29.20;41.80;;;;;;4823359;29;90319;-88
2023/06/24 10:40:43;;;;;;;3.65;1.98;;;29.30;42.20;;;;;;4825041;29;90414;-90
2023/06/24 10:43:24;;;;;;;2.97;2.20;;;29.50;43.40;;;;;;4823594;29;87877;-92
2023/06/24 10:45:54;;;;;;;3.67;2.13;;;29.60;41.70;;;;;;4823416;29;89833;-90
2023/06/24 10:48:20;;;;;;;3.00;2.08;;;29.60;42.40;;;;;;4810640;29;92377;-93
2023/06/24 10:50:46;;;;;;;3.00;1.92;;;29.50;43.30;;;;;;4824038;29;91142;-94
2023/06/24 10:53:13;;;;;;;4.05;2.03;;;29.50;43.20;;;;;;4824498;29;87897;-93
2023/06/24 10:55:39;;;;;;;4.10;1.80;;;29.80;43.50;;;;;;4806639;29;89148;-84
2023/06/24 10:58:12;;;;;;;2.75;2.25;;;29.80;44.20;;;;;;4808437;29;91184;-89
2023/06/24 11:00:40;;;;;;;4.82;2.00;;;29.90;42.20;;;;;;4823645;29;87418;-87
2023/06/24 11:03:14;;;;;;;2.83;2.10;;;29.80;44.10;;;;;;4822720;29;87721;-92
2023/06/24 11:05:45;;;;;;;3.13;2.20;;;29.90;42.80;;;;;;4808324;29;94692;-92
2023/06/24 11:08:11;;;;;;;2.78;2.17;;;29.90;43.00;;;;;;4807530;29;91535;-91
2023/06/24 11:10:47;;;;;;;3.50;2.40;;;30.10;43.90;;;;;;4823697;29;90582;-85
2023/06/24 11:13:13;;;;;;;2.35;1.80;;;30.10;41.10;;;;;;4807608;29;88155;-88
2023/06/24 11:15:43;;;;;;;3.72;2.05;;;30.10;42.50;;;;;;4809148;29;89197;-89
2023/06/24 11:18:10;;;;;;;3.20;2.17;;;30.40;45.10;;;;;;4808689;29;91367;-87
2023/06/24 11:20:37;;;;;;;2.05;1.60;;;30.60;41.30;;;;;;4807295;29;91486;-85
2023/06/24 11:23:07;;;;;;;3.13;1.70;;;30.60;40.90;;;;;;4808220;29;87347;-90
2023/06/24 11:25:39;;;;;;;5.55;1.80;;;30.60;41.50;;;;;;4807813;29;91422;-91
2023/06/24 11:28:05;;;;;;;2.40;1.58;;;30.70;39.20;;;;;;4808879;29;90288;-86
2023/06/24 11:30:34;;;;;;;1.60;1.33;;;30.60;39.40;;;;;;4808666;29;90855;-93
2023/06/24 11:33:00;;;;;;;2.47;1.50;;;30.60;39.00;;;;;;4823409;29;88266;-88
2023/06/24 11:35:26;;;;;;;2.67;1.38;;;30.60;39.50;;;;;;4823814;29;90424;-87
2023/06/24 11:37:51;;;;;;;2.17;1.52;;;30.80;39.60;;;;;;4822965;29;91163;-87
2023/06/24 11:40:19;;;;;;;2.20;1.25;;;30.90;38.50;;;;;;4822575;29;91090;-86
2023/06/24 11:42:46;;;;;;;2.28;1.50;;;30.90;39.50;;;;;;4823694;29;88276;-88
2023/06/24 11:45:15;;;;;;;4.93;1.42;;;31.10;38.50;;;;;;4823476;29;91114;-89
2023/06/24 11:47:40;;;;;;;2.78;1.30;;;31.10;37.20;;;;;;4825753;29;90683;-90
2023/06/24 11:50:07;;;;;;;2.88;1.92;;;30.90;37.70;;;;;;4823950;29;91359;-87
2023/06/24 11:52:45;;;;;;;1.65;1.30;;;30.90;37.40;;;;;;4807855;29;88140;-92
2023/06/24 11:55:17;;;;;;;1.60;1.05;;;31.00;40.20;;;;;;4825665;29;90159;-90
2023/06/24 11:58:04;;;;;;;2.47;1.52;;;31.30;39.40;;;;;;4824572;29;91744;-91
2023/06/24 12:00:38;;;;;;;5.57;1.50;;;31.70;41.50;;;;;;4823905;29;89916;-90
2023/06/24 12:03:05;;;;;;;2.63;1.50;;;31.80;36.20;;;;;;4808990;29;88513;-85
2023/06/24 12:05:36;;;;;;;2.28;1.40;;;31.70;36.90;;;;;;4808187;29;90054;-90
2023/06/24 12:08:05;;;;;;;2.85;1.50;;;31.70;37.60;;;;;;4822937;29;91126;-89
2023/06/24 12:10:33;;;;;;;3.42;1.45;;;31.80;36.80;;;;;;4806860;29;91292;-89
2023/06/24 12:13:03;;;;;;;2.67;1.20;;;31.80;35.50;;;;;;4807174;29;87870;-89
2023/06/24 12:15:29;;;;;;;2.60;1.65;;;31.80;36.50;;;;;;4811554;29;89901;-89
2023/06/24 12:17:55;;;;;;;2.90;1.60;;;31.90;37.10;;;;;;4827079;29;90222;-88
2023/06/24 12:20:21;;;;;;;2.00;1.45;;;32.00;37.50;;;;;;4826527;29;90280;-91
2023/06/24 12:22:48;;;;;;;3.15;1.50;;;32.00;37.20;;;;;;4810811;29;87841;-88
2023/06/24 12:25:14;;;;;;;1.70;1.38;;;32.10;38.10;;;;;;4825595;29;89926;-85
2023/06/24 12:27:42;;;;;;;2.40;1.50;;;32.30;37.00;;;;;;4826821;29;93346;-91
2023/06/24 12:30:09;;;;;;;2.80;1.42;;;32.40;38.60;;;;;;4812421;29;90941;-90
2023/06/24 12:32:34;;;;;;;3.13;1.65;;;32.50;34.60;;;;;;4827267;29;87864;-86
2023/06/24 12:35:01;;;;;;;3.63;1.63;;;32.40;33.60;;;;;;4827655;29;90136;-91
2023/06/24 12:37:32;;;;;;;1.85;1.40;;;32.30;33.90;;;;;;4809016;29;90470;-86
2023/06/24 12:39:58;;;;;;;2.85;1.80;;;32.40;39.00;;;;;;4825453;29;90268;-88
2023/06/24 12:42:24;;;;;;;3.03;1.30;;;32.80;40.90;;;;;;4810954;29;87033;-89